Time;durP1;ratioP1;P1;durP2;ratioP2;P2;SDS_P1;SDS_P2;PMS_P1;PMS_P2;Temp;Humidity;BMP_temperature;BMP_pressure;BME280_temperature;BME280_humidity;BME280_pressure;Samples;Min_cycle;Max_cycle;Signal;HPM_P1;HPM_P2
2022/03/02 00:00:41;;;;;;;7.30;6.90;;;;;;;0.22;100.00;101436.13;5072516;28;20101;-66
2022/03/02 00:03:07;;;;;;;6.80;6.50;;;;;;;0.27;100.00;101432.34;5073699;28;20069;-67
2022/03/02 00:05:33;;;;;;;6.63;6.32;;;;;;;0.31;100.00;101435.66;5072259;28;20487;-66
2022/03/02 00:07:59;;;;;;;7.75;7.35;;;;;;;0.35;100.00;101431.06;5072735;28;20109;-67
2022/03/02 00:10:24;;;;;;;7.20;6.80;;;;;;;0.33;100.00;101425.09;5072706;28;20020;-65
2022/03/02 00:12:50;;;;;;;8.45;7.95;;;;;;;0.27;100.00;101426.28;5071487;28;20025;-67
2022/03/02 00:15:15;;;;;;;7.38;6.97;;;;;;;0.22;100.00;101418.75;5073298;28;20498;-68
2022/03/02 00:17:41;;;;;;;7.28;6.88;;;;;;;0.27;100.00;101415.84;5072517;28;20024;-68
2022/03/02 00:20:07;;;;;;;7.20;6.80;;;;;;;0.26;100.00;101416.78;5071179;28;20391;-67
2022/03/02 00:22:32;;;;;;;6.80;6.50;;;;;;;0.21;100.00;101417.03;5074279;28;20514;-67
2022/03/02 00:24:58;;;;;;;7.80;7.38;;;;;;;0.25;100.00;101415.94;5074036;28;20020;-68
2022/03/02 00:27:23;;;;;;;6.90;6.60;;;;;;;0.20;100.00;101388.41;5073641;28;20495;-67
2022/03/02 00:29:51;;;;;;;6.80;6.50;;;;;;;0.26;100.00;101401.97;5071931;28;20028;-66
2022/03/02 00:32:18;;;;;;;6.82;6.53;;;;;;;0.24;100.00;101401.22;5072314;28;20107;-67
2022/03/02 00:34:43;;;;;;;7.38;6.97;;;;;;;0.22;100.00;101397.00;5070391;28;20112;-67
2022/03/02 00:37:09;;;;;;;7.53;7.13;;;;;;;0.11;100.00;101368.91;5070518;28;21283;-67
2022/03/02 00:39:35;;;;;;;7.38;6.97;;;;;;;0.16;100.00;101377.34;5072524;28;20205;-67
2022/03/02 00:42:01;;;;;;;7.40;7.00;;;;;;;0.24;100.00;101385.56;5074330;28;20029;-66
2022/03/02 00:44:26;;;;;;;7.30;6.90;;;;;;;0.23;100.00;101385.66;5076685;28;20043;-67
2022/03/02 00:46:52;;;;;;;7.28;6.90;;;;;;;0.15;100.00;101375.66;5072478;28;20037;-68
2022/03/02 00:49:18;;;;;;;7.68;7.28;;;;;;;0.21;100.00;101382.28;5071265;28;20024;-67
2022/03/02 00:51:43;;;;;;;7.70;7.30;;;;;;;0.21;100.00;101370.06;5053140;28;20115;-68
2022/03/02 00:54:10;;;;;;;7.32;6.93;;;;;;;0.24;100.00;101374.28;5070845;28;21277;-67
2022/03/02 00:56:36;;;;;;;7.03;6.72;;;;;;;0.20;100.00;101365.78;5072486;28;20177;-68
2022/03/02 00:59:01;;;;;;;7.72;7.32;;;;;;;0.18;100.00;101367.66;5072538;28;20544;-68
2022/03/02 01:01:27;;;;;;;6.95;6.65;;;;;;;0.21;100.00;101364.00;5072210;28;20031;-66
2022/03/02 01:03:53;;;;;;;6.88;6.57;;;;;;;0.16;100.00;101363.44;5070683;28;20539;-67
2022/03/02 01:06:18;;;;;;;7.00;6.70;;;;;;;0.15;100.00;101348.72;5071998;28;20039;-66
2022/03/02 01:08:44;;;;;;;7.45;7.05;;;;;;;0.17;100.00;101358.13;5069938;28;20163;-68
2022/03/02 01:11:11;;;;;;;8.13;7.65;;;;;;;0.17;100.00;101347.69;5071747;28;20487;-66
2022/03/02 01:13:36;;;;;;;7.13;6.75;;;;;;;0.15;100.00;101354.78;5070822;28;20095;-66
2022/03/02 01:16:02;;;;;;;7.32;6.93;;;;;;;0.09;100.00;101355.13;5071566;28;20120;-67
2022/03/02 01:18:28;;;;;;;6.95;6.65;;;;;;;0.10;100.00;101351.59;5071209;28;20388;-66
2022/03/02 01:20:53;;;;;;;7.10;6.80;;;;;;;0.06;100.00;101352.69;5072684;28;20095;-66
2022/03/02 01:23:19;;;;;;;7.88;7.47;;;;;;;0.12;100.00;101348.88;5072130;28;20033;-68
2022/03/02 01:25:45;;;;;;;7.00;6.70;;;;;;;0.05;100.00;101337.97;5070530;28;20035;-69
2022/03/02 01:28:10;;;;;;;7.25;6.85;;;;;;;0.09;100.00;101336.03;5073599;28;20024;-67
2022/03/02 01:30:36;;;;;;;7.38;7.00;;;;;;;0.06;100.00;101337.03;5072036;28;20112;-69
2022/03/02 01:33:01;;;;;;;6.97;6.68;;;;;;;-0.04;100.00;101323.69;5072044;28;20036;-67
2022/03/02 01:35:27;;;;;;;7.55;7.15;;;;;;;0.01;100.00;101326.03;5069820;28;20028;-69
2022/03/02 01:37:52;;;;;;;7.82;7.43;;;;;;;0.46;100.00;101322.53;5072517;28;20052;-66
2022/03/02 01:40:18;;;;;;;7.55;7.15;;;;;;;0.51;100.00;101335.28;5071171;28;20103;-67
2022/03/02 01:42:44;;;;;;;7.13;6.80;;;;;;;0.23;100.00;101321.25;5071396;28;20036;-66
2022/03/02 01:45:12;;;;;;;7.25;6.85;;;;;;;0.12;100.00;101317.59;5072167;28;20707;-66
2022/03/02 01:47:38;;;;;;;7.90;7.50;;;;;;;0.12;100.00;101322.78;5070335;28;20103;-66
2022/03/02 01:50:06;;;;;;;7.40;7.00;;;;;;;0.13;100.00;101320.09;5072715;28;20049;-67
2022/03/02 01:52:32;;;;;;;6.90;6.60;;;;;;;0.10;100.00;101315.06;5069867;28;20043;-66
2022/03/02 01:54:58;;;;;;;7.50;7.10;;;;;;;0.14;100.00;101320.94;5070591;28;20372;-65
2022/03/02 01:57:23;;;;;;;6.88;6.57;;;;;;;0.10;100.00;101302.03;5071184;28;20032;-66
2022/03/02 01:59:49;;;;;;;7.00;6.70;;;;;;;0.13;100.00;101316.66;5072157;28;20021;-66
2022/03/02 02:02:15;;;;;;;7.10;6.80;;;;;;;0.10;100.00;101312.47;5066182;28;20048;-67
2022/03/02 02:04:41;;;;;;;7.07;6.72;;;;;;;0.06;100.00;101312.72;5071322;28;20024;-67
2022/03/02 02:07:07;;;;;;;6.82;6.53;;;;;;;0.09;100.00;101286.47;5069371;28;20032;-66
2022/03/02 02:09:33;;;;;;;7.18;6.82;;;;;;;0.07;100.00;101291.75;5071581;28;20043;-67
2022/03/02 02:11:59;;;;;;;7.07;6.78;;;;;;;0.06;100.00;101297.06;5070533;28;20024;-66
2022/03/02 02:14:25;;;;;;;7.30;6.90;;;;;;;0.11;100.00;101295.88;5071654;28;20020;-66
2022/03/02 02:16:51;;;;;;;6.90;6.60;;;;;;;0.03;100.00;101284.22;5070926;28;20021;-67
2022/03/02 02:19:16;;;;;;;6.90;6.60;;;;;;;0.02;100.00;101266.88;5071067;28;20033;-67
2022/03/02 02:21:42;;;;;;;6.88;6.57;;;;;;;0.10;100.00;101283.75;5071099;28;20483;-67
2022/03/02 02:24:08;;;;;;;6.78;6.47;;;;;;;0.11;100.00;101285.44;5072953;28;20377;-67
2022/03/02 02:26:33;;;;;;;7.28;6.88;;;;;;;0.08;100.00;101280.41;5069832;28;20050;-65
2022/03/02 02:28:59;;;;;;;6.70;6.40;;;;;;;0.09;100.00;101281.25;5071160;28;20021;-66
2022/03/02 02:31:25;;;;;;;7.40;7.00;;;;;;;0.10;100.00;101286.38;5086288;28;20112;-67
2022/03/02 02:33:51;;;;;;;7.28;6.88;;;;;;;0.11;100.00;101287.22;5071327;28;20119;-66
2022/03/02 02:36:18;;;;;;;7.65;7.25;;;;;;;0.10;100.00;101282.94;5068694;28;20387;-66
2022/03/02 02:38:44;;;;;;;6.80;6.50;;;;;;;0.06;100.00;101268.38;5063708;28;20487;-67
2022/03/02 02:41:10;;;;;;;7.20;6.80;;;;;;;0.08;100.00;101269.13;5070035;28;20029;-66
2022/03/02 02:43:37;;;;;;;7.00;6.70;;;;;;;0.12;100.00;101268.84;5071229;28;20089;-67
2022/03/02 02:46:03;;;;;;;7.90;7.47;;;;;;;0.08;100.00;101269.13;5070030;28;20028;-67
2022/03/02 02:48:28;;;;;;;7.32;6.93;;;;;;;0.08;100.00;101262.16;5070109;28;20476;-67
2022/03/02 02:50:54;;;;;;;6.80;6.50;;;;;;;0.02;100.00;101256.44;5069617;28;20024;-66
2022/03/02 02:53:19;;;;;;;7.60;7.20;;;;;;;0.08;100.00;101256.94;5069139;28;20033;-66
2022/03/02 02:55:48;;;;;;;7.97;7.47;;;;;;;0.06;100.00;101253.56;5071810;28;20107;-66
2022/03/02 02:58:14;;;;;;;7.40;7.00;;;;;;;0.02;100.00;101254.69;5076402;28;20654;-65
2022/03/02 03:00:44;;;;;;;7.22;6.88;;;;;;;0.01;100.00;101253.00;5070903;28;20468;-66
2022/03/02 03:03:09;;;;;;;7.20;6.80;;;;;;;0.02;100.00;101244.25;5058262;28;20029;-66
2022/03/02 03:05:36;;;;;;;7.55;7.15;;;;;;;-0.01;100.00;101250.47;5070208;28;20552;-65
2022/03/02 03:08:08;;;;;;;7.10;6.80;;;;;;;0.04;100.00;101247.59;5069553;28;20032;-66
2022/03/02 03:10:35;;;;;;;8.10;7.60;;;;;;;0.06;100.00;101253.56;5068879;28;20443;-66
2022/03/02 03:13:01;;;;;;;6.82;6.53;;;;;;;0.08;100.00;101249.09;5065997;28;20036;-66
2022/03/02 03:15:28;;;;;;;7.10;6.78;;;;;;;0.06;100.00;101248.34;5074503;28;20107;-66
2022/03/02 03:17:54;;;;;;;7.40;7.00;;;;;;;-0.01;100.00;101241.78;5070601;28;20063;-66
2022/03/02 03:20:23;;;;;;;7.20;6.80;;;;;;;-0.08;100.00;101236.09;5073342;28;20103;-67
2022/03/02 03:22:49;;;;;;;6.70;6.40;;;;;;;-0.26;100.00;101229.34;5071302;28;20021;-66
2022/03/02 03:25:15;;;;;;;6.90;6.60;;;;;;;-0.15;100.00;101246.97;5074296;28;20036;-66
2022/03/02 03:27:42;;;;;;;7.60;7.20;;;;;;;-0.13;100.00;101242.53;5074724;28;20040;-66
2022/03/02 03:30:09;;;;;;;6.80;6.50;;;;;;;-0.12;100.00;101237.22;5074623;28;20036;-66
2022/03/02 03:32:35;;;;;;;7.47;7.07;;;;;;;-0.11;100.00;101238.06;5074729;28;20483;-66
2022/03/02 03:35:02;;;;;;;7.05;6.75;;;;;;;-0.10;100.00;101235.34;5074371;28;20034;-68
2022/03/02 03:37:28;;;;;;;6.85;6.55;;;;;;;-0.11;100.00;101225.00;5073714;28;20024;-66
2022/03/02 03:39:54;;;;;;;6.90;6.60;;;;;;;-0.12;100.00;101228.56;5074325;28;20039;-67
2022/03/02 03:42:19;;;;;;;7.45;7.05;;;;;;;-0.14;100.00;101214.78;5074424;28;20082;-66
2022/03/02 03:44:45;;;;;;;7.20;6.80;;;;;;;-0.18;100.00;101215.88;5073059;28;20024;-67
2022/03/02 03:47:10;;;;;;;7.70;7.30;;;;;;;-0.13;100.00;101217.28;5075712;28;20036;-66
2022/03/02 03:49:36;;;;;;;7.68;7.28;;;;;;;-0.13;100.00;101213.84;5074049;28;20119;-67
2022/03/02 03:52:03;;;;;;;7.15;6.75;;;;;;;-0.07;100.00;101211.72;5075875;28;20025;-68
2022/03/02 03:54:28;;;;;;;7.43;7.03;;;;;;;-0.10;100.00;101208.44;5073287;28;20024;-67
2022/03/02 03:56:54;;;;;;;7.50;7.10;;;;;;;-0.13;100.00;101203.41;5074356;28;20032;-67
2022/03/02 03:59:19;;;;;;;7.15;6.78;;;;;;;-0.11;100.00;101202.38;5074114;28;20132;-66
2022/03/02 04:01:45;;;;;;;7.20;6.80;;;;;;;-0.04;100.00;101197.66;5073946;28;20491;-66
2022/03/02 04:04:10;;;;;;;7.53;7.13;;;;;;;-0.04;100.00;101197.66;5072867;28;20032;-66
2022/03/02 04:06:36;;;;;;;7.40;7.00;;;;;;;0.01;100.00;101194.78;5072944;28;20036;-67
2022/03/02 04:09:02;;;;;;;6.80;6.50;;;;;;;-0.02;100.00;101191.41;5089642;28;20028;-65
2022/03/02 04:11:28;;;;;;;7.32;6.95;;;;;;;-0.10;100.00;101192.78;5074185;28;20074;-67
2022/03/02 04:13:54;;;;;;;7.30;6.90;;;;;;;-0.10;100.00;101198.00;5074207;28;20032;-66
2022/03/02 04:16:20;;;;;;;6.90;6.60;;;;;;;-0.28;100.00;101166.88;5070369;28;20037;-66
2022/03/02 04:18:45;;;;;;;6.90;6.60;;;;;;;-0.14;100.00;101192.16;5073896;28;20028;-66
2022/03/02 04:21:11;;;;;;;7.55;7.15;;;;;;;-0.15;100.00;101194.81;5088803;28;20033;-66
2022/03/02 04:23:36;;;;;;;6.82;6.53;;;;;;;-0.17;100.00;101188.84;5072540;28;20036;-66
2022/03/02 04:26:02;;;;;;;7.88;7.47;;;;;;;-0.14;100.00;101179.09;5073423;28;20036;-65
2022/03/02 04:28:29;;;;;;;7.13;6.75;;;;;;;-0.13;100.00;101188.59;5073491;28;20056;-65
2022/03/02 04:30:55;;;;;;;7.68;7.28;;;;;;;-0.10;100.00;101187.56;5072990;28;20055;-67
2022/03/02 04:33:20;;;;;;;7.65;7.25;;;;;;;-0.10;100.00;101188.41;5073691;28;20029;-66
2022/03/02 04:35:45;;;;;;;6.95;6.65;;;;;;;-0.11;100.00;101185.91;5073427;28;20075;-66
2022/03/02 04:38:11;;;;;;;7.03;6.63;;;;;;;-0.17;100.00;101186.25;5072919;28;20399;-66
2022/03/02 04:40:37;;;;;;;7.50;7.10;;;;;;;-0.16;100.00;101182.72;5073013;28;20040;-65
2022/03/02 04:43:03;;;;;;;7.57;7.18;;;;;;;-0.13;100.00;101180.78;5081740;28;20031;-66
2022/03/02 04:45:29;;;;;;;8.10;7.60;;;;;;;-0.10;100.00;101175.38;5076328;28;20522;-67
2022/03/02 04:47:56;;;;;;;7.40;7.00;;;;;;;-0.09;100.00;101177.03;5070816;28;20045;-66
2022/03/02 04:50:22;;;;;;;8.10;7.63;;;;;;;-0.05;100.00;101180.31;5072207;28;20127;-67
2022/03/02 04:52:49;;;;;;;6.72;6.43;;;;;;;-0.16;100.00;101178.34;5071698;28;20448;-67
2022/03/02 04:55:16;;;;;;;7.93;7.47;;;;;;;-0.15;100.00;101181.78;5073406;28;20028;-66
2022/03/02 04:57:52;;;;;;;7.63;7.22;;;;;;;-0.19;100.00;101177.69;5072735;28;20044;-66
2022/03/02 05:00:20;;;;;;;8.00;7.55;;;;;;;-0.13;100.00;101177.34;5072685;28;20020;-66
2022/03/02 05:02:46;;;;;;;7.88;7.40;;;;;;;-0.14;100.00;101180.88;5072519;28;20032;-66
2022/03/02 05:05:13;;;;;;;7.55;7.15;;;;;;;-0.13;100.00;101180.78;5086360;28;20178;-66
2022/03/02 05:07:40;;;;;;;7.43;7.03;;;;;;;-0.21;100.00;101180.38;5072487;28;20027;-66
2022/03/02 05:10:07;;;;;;;6.88;6.57;;;;;;;-0.16;100.00;101178.34;5072827;28;20032;-66
2022/03/02 05:12:33;;;;;;;7.95;7.50;;;;;;;-0.15;100.00;101179.16;5072123;28;20043;-66
2022/03/02 05:14:58;;;;;;;8.35;7.85;;;;;;;-0.15;100.00;101180.00;5071758;28;20472;-66
2022/03/02 05:17:24;;;;;;;8.00;7.53;;;;;;;-0.17;100.00;101181.03;5072518;28;20138;-66
2022/03/02 05:19:50;;;;;;;8.88;8.30;;;;;;;-0.03;100.00;101178.47;5071286;28;20369;-67
2022/03/02 05:22:16;;;;;;;7.30;6.90;;;;;;;-0.03;100.00;101170.63;5072479;28;20559;-66
2022/03/02 05:24:42;;;;;;;7.55;7.15;;;;;;;-0.06;100.00;101170.81;5072715;28;20032;-66
2022/03/02 05:27:08;;;;;;;8.30;7.80;;;;;;;-0.10;100.00;101158.88;5071413;28;20033;-67
2022/03/02 05:29:35;;;;;;;7.53;7.13;;;;;;;-0.05;100.00;101168.13;5072344;28;20060;-67
2022/03/02 05:32:01;;;;;;;6.97;6.63;;;;;;;-0.01;100.00;101163.53;5071703;28;20373;-67
2022/03/02 05:34:26;;;;;;;7.75;7.35;;;;;;;0.05;100.00;101164.97;5072627;28;20114;-66
2022/03/02 05:36:52;;;;;;;7.07;6.72;;;;;;;0.04;100.00;101158.91;5071772;28;20433;-67
2022/03/02 05:39:17;;;;;;;7.93;7.47;;;;;;;0.11;100.00;101170.66;5072400;28;20082;-68
2022/03/02 05:41:43;;;;;;;8.20;7.70;;;;;;;0.17;100.00;101172.91;5072264;28;20023;-66
2022/03/02 05:44:08;;;;;;;7.53;7.13;;;;;;;0.11;100.00;101168.03;5071597;28;20036;-67
2022/03/02 05:46:35;;;;;;;7.65;7.25;;;;;;;0.16;100.00;101173.00;5071979;28;20399;-66
2022/03/02 05:49:03;;;;;;;7.57;7.18;;;;;;;0.21;100.00;101169.16;5072923;28;20028;-66
2022/03/02 05:51:30;;;;;;;8.40;7.90;;;;;;;0.21;100.00;101169.16;5071240;28;20048;-67
2022/03/02 05:53:56;;;;;;;8.30;7.80;;;;;;;0.20;100.00;101162.25;5071826;28;20020;-68
2022/03/02 05:56:24;;;;;;;7.88;7.40;;;;;;;0.23;100.00;101167.31;5071845;28;20051;-67
2022/03/02 05:58:51;;;;;;;7.20;6.80;;;;;;;0.26;100.00;101164.50;5066347;28;20063;-67
2022/03/02 06:01:16;;;;;;;7.95;7.53;;;;;;;0.15;100.00;101150.44;5069562;28;20044;-67
2022/03/02 06:03:42;;;;;;;8.25;7.75;;;;;;;0.35;100.00;101160.50;5071173;28;20066;-66
2022/03/02 06:06:07;;;;;;;6.80;6.50;;;;;;;0.47;100.00;101161.53;5071512;28;20111;-67
2022/03/02 06:08:32;;;;;;;7.88;7.43;;;;;;;0.50;100.00;101167.38;5071446;28;20032;-67
2022/03/02 06:10:58;;;;;;;7.05;6.72;;;;;;;0.40;100.00;101155.00;5071528;28;20024;-67
2022/03/02 06:13:24;;;;;;;8.02;7.53;;;;;;;0.49;100.00;101168.31;5069827;28;20029;-65
2022/03/02 06:15:49;;;;;;;7.93;7.43;;;;;;;0.58;100.00;101164.31;5069479;28;20498;-66
2022/03/02 06:18:15;;;;;;;7.70;7.30;;;;;;;0.59;100.00;101163.41;5069939;28;20062;-66
2022/03/02 06:20:42;;;;;;;7.22;6.85;;;;;;;0.86;100.00;101159.97;5070146;28;20043;-67
2022/03/02 06:23:08;;;;;;;8.15;7.65;;;;;;;0.96;100.00;101163.69;5068960;28;20036;-66
2022/03/02 06:25:34;;;;;;;7.18;6.78;;;;;;;0.91;100.00;101163.97;5069684;28;20032;-67
2022/03/02 06:28:00;;;;;;;7.57;7.18;;;;;;;1.02;100.00;101163.28;5069360;28;20410;-65
2022/03/02 06:30:25;;;;;;;7.38;6.97;;;;;;;1.28;100.00;101167.69;5066576;28;20028;-66
2022/03/02 06:32:52;;;;;;;7.93;7.45;;;;;;;1.26;100.00;101164.34;5071127;28;20068;-66
2022/03/02 06:35:17;;;;;;;7.63;7.22;;;;;;;1.25;100.00;101160.06;5071181;28;20056;-67
2022/03/02 06:37:45;;;;;;;7.38;6.97;;;;;;;1.20;100.00;101162.13;5071100;28;20074;-67
2022/03/02 06:40:12;;;;;;;7.50;7.10;;;;;;;1.13;100.00;101154.78;5070995;28;20016;-66
2022/03/02 06:43:02;;;;;;;8.02;7.53;;;;;;;1.08;100.00;101157.66;5071116;28;20043;-66
2022/03/02 06:45:36;;;;;;;7.47;7.07;;;;;;;1.00;100.00;101149.50;5070485;28;20017;-66
2022/03/02 06:48:16;;;;;;;8.50;8.00;;;;;;;0.93;100.00;101148.19;5069529;28;20028;-65
2022/03/02 06:50:44;;;;;;;7.80;7.40;;;;;;;0.99;100.00;101145.22;5070470;28;20020;-65
2022/03/02 06:53:15;;;;;;;9.85;9.15;;;;;;;1.04;100.00;101145.75;5070498;28;20024;-66
2022/03/02 06:55:42;;;;;;;7.97;7.50;;;;;;;1.10;100.00;101145.34;5070717;28;20036;-67
2022/03/02 06:58:10;;;;;;;8.00;7.50;;;;;;;0.86;100.00;101146.91;5081636;28;20063;-66
2022/03/02 07:00:37;;;;;;;8.27;7.78;;;;;;;1.00;100.00;101141.66;5069705;28;20495;-65
2022/03/02 07:03:06;;;;;;;8.07;7.60;;;;;;;1.00;100.00;101145.09;5070335;28;20043;-66
2022/03/02 07:05:32;;;;;;;9.00;8.40;;;;;;;1.01;100.00;101141.53;5069219;28;20024;-66
2022/03/02 07:08:00;;;;;;;8.40;7.90;;;;;;;1.05;100.00;101139.59;5085728;28;20031;-66
2022/03/02 07:10:26;;;;;;;8.18;7.68;;;;;;;1.08;100.00;101139.38;5070346;28;20052;-67
2022/03/02 07:12:52;;;;;;;8.07;7.57;;;;;;;1.15;100.00;101135.44;5069896;28;20403;-68
2022/03/02 07:15:18;;;;;;;7.43;7.03;;;;;;;0.99;100.00;101119.09;5070378;28;20025;-68
2022/03/02 07:17:43;;;;;;;7.20;6.80;;;;;;;0.86;100.00;101105.97;5069135;28;20510;-68
2022/03/02 07:20:11;;;;;;;8.85;8.30;;;;;;;1.07;100.00;101122.88;5069932;28;20020;-68
2022/03/02 07:22:51;;;;;;;7.03;6.72;;;;;;;1.03;100.00;101125.81;5069473;28;20435;-68
2022/03/02 07:25:29;;;;;;;7.82;7.43;;;;;;;1.24;100.00;101126.16;5069522;28;20044;-68
2022/03/02 07:27:56;;;;;;;7.60;7.20;;;;;;;1.25;100.00;101123.47;5059733;28;20028;-67
2022/03/02 07:30:23;;;;;;;7.78;7.38;;;;;;;0.95;100.00;101125.44;5070819;28;20035;-69
2022/03/02 07:32:54;;;;;;;9.55;8.88;;;;;;;1.10;100.00;101127.06;5070590;28;20105;-68
2022/03/02 07:35:19;;;;;;;7.30;6.90;;;;;;;1.27;100.00;101124.19;5071992;28;20032;-69
2022/03/02 07:37:45;;;;;;;7.35;6.95;;;;;;;1.14;100.00;101125.09;5086401;28;20032;-68
2022/03/02 07:40:14;;;;;;;7.75;7.35;;;;;;;1.08;100.00;101106.25;5072169;28;20028;-69
2022/03/02 07:42:40;;;;;;;8.75;8.25;;;;;;;1.10;100.00;101116.59;5071795;28;20024;-70
2022/03/02 07:45:07;;;;;;;8.40;7.90;;;;;;;1.29;100.00;101109.25;5070623;28;20341;-69
2022/03/02 07:47:32;;;;;;;8.20;7.70;;;;;;;1.08;100.00;101115.88;5071924;28;20131;-68
2022/03/02 07:49:58;;;;;;;7.55;7.15;;;;;;;1.31;100.00;101101.28;5069251;28;20483;-68
2022/03/02 07:52:29;;;;;;;7.72;7.32;;;;;;;1.31;100.00;101106.53;5070347;28;20534;-68
2022/03/02 07:54:59;;;;;;;8.15;7.65;;;;;;;1.32;100.00;101108.19;5070612;28;20106;-68
2022/03/02 07:57:28;;;;;;;7.25;6.85;;;;;;;1.37;100.00;101109.56;5069574;28;20077;-66
2022/03/02 07:59:57;;;;;;;9.25;8.65;;;;;;;1.36;100.00;101105.28;5071130;28;20425;-68
2022/03/02 08:02:24;;;;;;;8.18;7.68;;;;;;;1.53;100.00;101105.94;5073485;28;20036;-69
2022/03/02 08:04:52;;;;;;;6.80;6.50;;;;;;;1.53;100.00;101105.94;5073908;28;20047;-69
2022/03/02 08:07:19;;;;;;;7.97;7.47;;;;;;;1.65;100.00;101105.97;5073928;28;20039;-69
2022/03/02 08:09:44;;;;;;;7.90;7.45;;;;;;;1.75;100.00;101107.94;5082829;28;20029;-69
2022/03/02 08:12:11;;;;;;;7.47;7.07;;;;;;;1.74;100.00;101101.88;5066015;28;20103;-69
2022/03/02 08:14:36;;;;;;;7.78;7.35;;;;;;;1.36;100.00;101102.69;5073431;28;20107;-69
2022/03/02 08:17:03;;;;;;;8.68;8.13;;;;;;;1.57;100.00;101110.88;5073251;28;20032;-69
2022/03/02 08:19:33;;;;;;;8.27;7.78;;;;;;;1.85;100.00;101107.25;5074895;28;20025;-67
2022/03/02 08:22:05;;;;;;;8.07;7.57;;;;;;;1.74;100.00;101096.66;5063835;28;20048;-69
2022/03/02 08:24:31;;;;;;;7.68;7.28;;;;;;;1.80;100.00;101096.25;5073205;28;20055;-68
2022/03/02 08:27:02;;;;;;;7.80;7.40;;;;;;;1.83;100.00;101092.56;5072054;28;20399;-69
2022/03/02 08:29:30;;;;;;;7.78;7.38;;;;;;;1.91;100.00;101092.91;5073878;28;20074;-69
2022/03/02 08:32:01;;;;;;;7.68;7.28;;;;;;;1.83;100.00;101097.81;5073078;28;20023;-69
2022/03/02 08:34:28;;;;;;;7.75;7.35;;;;;;;1.93;100.00;101091.84;5073023;28;20037;-67
2022/03/02 08:36:55;;;;;;;8.00;7.53;;;;;;;1.79;100.00;101076.25;5073303;28;20017;-68
2022/03/02 08:39:20;;;;;;;8.52;8.02;;;;;;;1.79;100.00;101078.03;5061183;28;20042;-69
2022/03/02 08:41:46;;;;;;;8.85;8.30;;;;;;;2.35;100.00;101089.81;5073263;28;20487;-68
2022/03/02 08:44:12;;;;;;;7.28;6.88;;;;;;;2.22;100.00;101073.31;5073625;28;20028;-68
2022/03/02 08:46:39;;;;;;;7.53;7.13;;;;;;;2.31;100.00;101079.66;5074789;28;20044;-68
2022/03/02 08:49:05;;;;;;;7.80;7.40;;;;;;;2.42;100.00;101083.22;5073281;28;20029;-69
2022/03/02 08:51:33;;;;;;;8.07;7.57;;;;;;;2.50;100.00;101077.44;5070092;28;20028;-68
2022/03/02 08:54:01;;;;;;;7.68;7.28;;;;;;;2.60;100.00;101077.59;5071615;28;20586;-67
2022/03/02 08:56:27;;;;;;;7.15;6.80;;;;;;;2.22;100.00;101070.69;5073060;28;20071;-68
2022/03/02 08:58:54;;;;;;;7.40;7.00;;;;;;;2.44;100.00;101078.69;5072952;28;20072;-68
2022/03/02 09:01:20;;;;;;;7.60;7.20;;;;;;;2.27;100.00;101076.41;5088463;28;20068;-67
2022/03/02 09:03:48;;;;;;;7.32;6.93;;;;;;;2.12;100.00;101082.72;5074015;28;20055;-68
2022/03/02 09:06:18;;;;;;;7.45;7.05;;;;;;;2.17;100.00;101080.63;5068168;28;20511;-68
2022/03/02 09:08:44;;;;;;;7.32;6.93;;;;;;;2.60;100.00;101073.19;5066721;28;20028;-68
2022/03/02 09:11:09;;;;;;;7.25;6.85;;;;;;;2.13;100.00;101076.53;5071372;28;20476;-69
2022/03/02 09:13:39;;;;;;;7.00;6.70;;;;;;;2.35;100.00;101060.16;5072505;28;20024;-69
2022/03/02 09:16:05;;;;;;;7.43;7.03;;;;;;;2.37;100.00;101064.38;5072602;28;20021;-68
2022/03/02 09:18:31;;;;;;;7.40;7.00;;;;;;;2.17;100.00;101071.00;5072432;28;20111;-68
2022/03/02 09:21:02;;;;;;;6.90;6.60;;;;;;;2.60;100.00;101064.50;5070469;28;20103;-67
2022/03/02 09:23:30;;;;;;;7.85;7.45;;;;;;;2.71;100.00;101059.31;5072643;28;20027;-68
2022/03/02 09:26:18;;;;;;;6.80;6.50;;;;;;;2.34;100.00;101058.50;5071214;28;20086;-68
2022/03/02 09:28:46;;;;;;;6.80;6.50;;;;;;;2.26;100.00;101056.41;5063621;28;20052;-68
2022/03/02 09:31:14;;;;;;;6.82;6.53;;;;;;;2.69;100.00;101051.56;5088113;28;20024;-69
2022/03/02 09:33:41;;;;;;;7.60;7.20;;;;;;;2.65;100.00;101033.59;5069956;28;20101;-68
2022/03/02 09:36:09;;;;;;;6.93;6.63;;;;;;;2.80;100.00;101044.72;5058981;28;20043;-68
2022/03/02 09:38:36;;;;;;;7.53;7.13;;;;;;;2.69;100.00;101037.63;5072207;28;20032;-68
2022/03/02 09:41:18;;;;;;;7.70;7.30;;;;;;;2.60;100.00;101041.75;5072186;28;20032;-68
2022/03/02 09:43:50;;;;;;;6.80;6.50;;;;;;;2.68;100.00;101033.34;5070792;28;20067;-67
2022/03/02 09:46:19;;;;;;;7.28;6.88;;;;;;;2.83;100.00;101032.22;5072212;28;20031;-68
2022/03/02 09:48:50;;;;;;;8.63;8.13;;;;;;;2.35;100.00;101039.22;5066043;28;20035;-69
2022/03/02 09:51:21;;;;;;;8.98;8.40;;;;;;;2.53;100.00;101034.47;5087233;28;20383;-68
2022/03/02 09:53:49;;;;;;;8.32;7.82;;;;;;;2.84;100.00;101023.41;5071673;28;20060;-69
2022/03/02 09:56:14;;;;;;;7.95;7.55;;;;;;;3.02;100.00;101032.56;5072494;28;20446;-69
2022/03/02 09:58:40;;;;;;;7.78;7.38;;;;;;;3.00;100.00;101028.34;5070910;28;20072;-68
2022/03/02 10:01:13;;;;;;;7.55;7.15;;;;;;;2.88;100.00;101024.88;5072219;28;20123;-68
2022/03/02 10:03:45;;;;;;;7.63;7.22;;;;;;;2.84;100.00;101030.44;5071609;28;20036;-67
2022/03/02 10:06:12;;;;;;;7.10;6.80;;;;;;;3.16;100.00;101034.16;5072306;28;20028;-67
2022/03/02 10:08:50;;;;;;;7.10;6.80;;;;;;;2.57;100.00;101017.56;5071967;28;20084;-68
2022/03/02 10:11:20;;;;;;;7.28;6.90;;;;;;;2.82;100.00;101022.69;5070733;28;20077;-67
2022/03/02 10:13:47;;;;;;;8.40;7.90;;;;;;;2.50;100.00;101014.59;5067978;28;20029;-67
2022/03/02 10:16:28;;;;;;;7.70;7.30;;;;;;;2.68;100.00;101013.22;5064699;28;20512;-69
2022/03/02 10:18:59;;;;;;;8.60;8.10;;;;;;;2.86;100.00;101000.56;5071128;28;20035;-68
2022/03/02 10:21:29;;;;;;;7.53;7.13;;;;;;;2.94;100.00;100987.75;5070781;28;20052;-67
2022/03/02 10:24:05;;;;;;;8.45;7.95;;;;;;;2.77;100.00;100988.13;5069582;28;20395;-68
2022/03/02 10:26:35;;;;;;;7.80;7.40;;;;;;;2.58;100.00;100979.97;5085447;28;20106;-68
2022/03/02 10:29:11;;;;;;;7.47;7.07;;;;;;;2.42;100.00;100981.09;5071099;28;20020;-68
2022/03/02 10:32:05;;;;;;;7.70;7.30;;;;;;;2.42;100.00;100978.47;5069831;28;20075;-69
2022/03/02 10:34:54;;;;;;;7.70;7.30;;;;;;;2.39;100.00;100980.47;5070386;28;20823;-68
2022/03/02 10:37:20;;;;;;;8.13;7.68;;;;;;;2.34;100.00;100975.53;5070879;28;20027;-68
2022/03/02 10:40:16;;;;;;;8.38;7.88;;;;;;;2.32;100.00;100966.16;5070934;28;20745;-69
2022/03/02 10:42:52;;;;;;;7.43;7.03;;;;;;;2.19;100.00;100958.34;5071600;28;20389;-69
2022/03/02 10:45:21;;;;;;;8.07;7.63;;;;;;;2.34;100.00;100962.47;5078698;28;20111;-68
2022/03/02 10:48:38;;;;;;;8.20;7.75;;;;;;;2.16;100.00;100958.56;5056134;28;20115;-69
2022/03/02 10:51:06;;;;;;;8.18;7.68;;;;;;;2.16;100.00;100951.53;5084085;28;20472;-69
2022/03/02 10:53:36;;;;;;;8.05;7.60;;;;;;;2.08;100.00;100948.66;5069514;28;20032;-67
2022/03/02 10:56:04;;;;;;;7.78;7.38;;;;;;;2.00;100.00;100958.00;5070814;28;20506;-69
2022/03/02 10:58:31;;;;;;;7.82;7.43;;;;;;;2.01;100.00;100951.81;5069551;28;20571;-69
2022/03/02 11:00:59;;;;;;;8.23;7.72;;;;;;;2.02;100.00;100946.47;5070945;28;20028;-69
2022/03/02 11:03:28;;;;;;;7.60;7.20;;;;;;;1.99;100.00;100935.41;5070808;28;20112;-68
2022/03/02 11:05:59;;;;;;;7.72;7.32;;;;;;;1.94;100.00;100941.78;5087815;28;20036;-68
2022/03/02 11:08:25;;;;;;;7.85;7.45;;;;;;;1.94;100.00;100933.94;5070825;28;20032;-68
2022/03/02 11:10:51;;;;;;;7.32;6.93;;;;;;;1.76;100.00;100934.38;5070735;28;20112;-68
2022/03/02 11:13:19;;;;;;;7.32;6.93;;;;;;;1.89;100.00;100925.56;5068181;28;20054;-68
2022/03/02 11:15:52;;;;;;;7.10;6.80;;;;;;;2.05;100.00;100934.94;5071042;28;20052;-69
2022/03/02 11:18:19;;;;;;;8.27;7.78;;;;;;;2.00;100.00;100930.03;5055126;28;20044;-68
2022/03/02 11:21:06;;;;;;;7.15;6.85;;;;;;;1.95;100.00;100924.28;5072114;28;20466;-68
2022/03/02 11:23:40;;;;;;;7.95;7.55;;;;;;;1.98;100.00;100926.69;5070645;28;20515;-68
2022/03/02 11:26:07;;;;;;;;;;;;;;;1.97;100.00;100919.78;5085898;28;20027;-68